Time;durP1;ratioP1;P1;durP2;ratioP2;P2;SDS_P1;SDS_P2;PMS_P1;PMS_P2;Temp;Humidity;BMP_temperature;BMP_pressure;BME280_temperature;BME280_humidity;BME280_pressure;Samples;Min_cycle;Max_cycle;Signal;HPM_P1;HPM_P2
2022/10/31 00:01:19;;;;;;;22.70;18.98;;;;;;;9.89;100.00;98281.08;1785066;78;20994;-60
2022/10/31 00:03:45;;;;;;;20.52;18.35;;;;;;;9.86;100.00;98278.98;1782497;78;21232;-61
2022/10/31 00:06:13;;;;;;;23.30;19.40;;;;;;;9.85;100.00;98279.23;1794727;78;20894;-60
2022/10/31 00:08:41;;;;;;;24.12;17.98;;;;;;;9.85;100.00;98281.91;1795793;78;20860;-59
2022/10/31 00:11:09;;;;;;;23.05;17.20;;;;;;;9.85;100.00;98280.04;1771760;80;21039;-59
2022/10/31 00:13:37;;;;;;;22.42;19.60;;;;;;;9.85;100.00;98280.57;1786354;77;21002;-59
2022/10/31 00:16:09;;;;;;;23.67;19.95;;;;;;;9.87;100.00;98278.45;1775863;80;21030;-59
2022/10/31 00:18:37;;;;;;;23.83;19.35;;;;;;;9.87;100.00;98280.55;1766808;78;21494;-58
2022/10/31 00:21:05;;;;;;;22.67;18.65;;;;;;;9.85;100.00;98279.23;1780159;78;21059;-61
2022/10/31 00:23:32;;;;;;;23.22;18.87;;;;;;;9.80;100.00;98279.30;1793666;78;20932;-60
2022/10/31 00:26:02;;;;;;;24.70;20.30;;;;;;;9.77;100.00;98274.49;1786531;78;21092;-61
2022/10/31 00:28:31;;;;;;;26.65;20.68;;;;;;;9.79;100.00;98275.81;1789153;78;20907;-60
2022/10/31 00:31:02;;;;;;;29.87;21.00;;;;;;;9.81;100.00;98279.54;1789492;77;20907;-61
2022/10/31 00:33:32;;;;;;;28.42;20.00;;;;;;;9.80;100.00;98273.38;1779867;79;20896;-61
2022/10/31 00:36:00;;;;;;;25.92;20.32;;;;;;;9.82;100.00;98279.81;1776061;79;21019;-60
2022/10/31 00:38:27;;;;;;;28.15;21.50;;;;;;;9.84;100.00;98280.33;1797438;77;21045;-60
2022/10/31 00:40:55;;;;;;;24.65;20.68;;;;;;;9.85;100.00;98273.88;1788512;77;21092;-58
2022/10/31 00:43:22;;;;;;;24.27;20.25;;;;;;;9.85;100.00;98273.88;1786581;78;20967;-58
2022/10/31 00:45:51;;;;;;;26.57;20.72;;;;;;;9.85;100.00;98277.90;1799524;79;21384;-59
2022/10/31 00:48:17;;;;;;;26.70;21.57;;;;;;;9.85;100.00;98279.23;1790249;78;20908;-60
2022/10/31 00:50:44;;;;;;;29.37;22.52;;;;;;;9.87;100.00;98285.13;1787779;78;21465;-59
2022/10/31 00:53:11;;;;;;;30.37;20.45;;;;;;;9.88;100.00;98287.52;1761725;78;21108;-59
2022/10/31 00:55:38;;;;;;;23.87;18.98;;;;;;;9.90;100.00;98291.24;1782525;78;20947;-60
2022/10/31 00:58:05;;;;;;;26.97;20.80;;;;;;;9.89;100.00;98288.33;1783409;78;21208;-61
2022/10/31 01:00:32;;;;;;;27.45;21.57;;;;;;;9.87;100.00;98289.14;1794817;78;20944;-59
2022/10/31 01:02:59;;;;;;;24.85;19.45;;;;;;;9.87;100.00;98293.16;1783203;77;20959;-59
2022/10/31 01:05:26;;;;;;;24.95;19.23;;;;;;;9.89;100.00;98286.98;1787359;78;22122;-59
2022/10/31 01:07:52;;;;;;;23.10;19.67;;;;;;;9.89;100.00;98282.97;1780072;79;20998;-60
2022/10/31 01:10:19;;;;;;;26.25;20.37;;;;;;;9.91;100.00;98291.52;1788401;78;20905;-58
2022/10/31 01:12:48;;;;;;;25.10;20.45;;;;;;;9.89;100.00;98291.77;1773588;80;20951;-59
2022/10/31 01:15:21;;;;;;;25.90;19.73;;;;;;;9.84;100.00;98286.48;1790210;79;20982;-59
2022/10/31 01:17:48;;;;;;;29.63;20.37;;;;;;;9.79;100.00;98289.72;1792603;79;21533;-57
2022/10/31 01:20:16;;;;;;;23.90;20.50;;;;;;;9.75;100.00;98282.77;1803440;78;21038;-60
2022/10/31 01:22:44;;;;;;;26.97;21.35;;;;;;;9.72;100.00;98281.20;1795704;78;20981;-60
2022/10/31 01:25:12;;;;;;;25.75;20.23;;;;;;;9.68;100.00;98282.84;1784015;78;21408;-60
2022/10/31 01:27:39;;;;;;;25.88;20.23;;;;;;;9.64;100.00;98279.91;1778075;78;21002;-59
2022/10/31 01:30:09;;;;;;;22.48;20.08;;;;;;;9.62;100.00;98280.73;1776193;78;21502;-59
2022/10/31 01:32:37;;;;;;;27.48;20.00;;;;;;;9.57;100.00;98281.56;1782675;79;20997;-59
2022/10/31 01:35:04;;;;;;;26.00;19.98;;;;;;;9.54;100.00;98284.78;1774939;80;20919;-59
2022/10/31 01:37:31;;;;;;;24.80;19.48;;;;;;;9.53;100.00;98275.70;1782349;79;21431;-58
2022/10/31 01:39:58;;;;;;;26.52;21.23;;;;;;;9.50;100.00;98277.05;1792675;79;20998;-58
2022/10/31 01:42:25;;;;;;;24.05;20.45;;;;;;;9.48;100.00;98277.06;1791620;79;21940;-58
2022/10/31 01:44:56;;;;;;;26.05;19.23;;;;;;;9.48;100.00;98278.41;1785744;77;20884;-59
2022/10/31 01:47:35;;;;;;;25.00;19.37;;;;;;;9.51;100.00;98279.20;1792154;78;20944;-58
2022/10/31 01:50:06;;;;;;;26.37;20.20;;;;;;;9.48;100.00;98279.21;1789805;78;20992;-60
2022/10/31 01:52:41;;;;;;;24.27;19.27;;;;;;;9.46;100.00;98280.03;1776084;80;21077;-58
2022/10/31 01:55:20;;;;;;;26.55;19.42;;;;;;;9.46;100.00;98280.03;1792463;78;21226;-59
2022/10/31 01:57:49;;;;;;;24.30;19.87;;;;;;;9.45;100.00;98275.74;1776088;79;21057;-60
2022/10/31 02:00:17;;;;;;;26.65;20.12;;;;;;;9.46;100.00;98278.69;1788250;79;21026;-58
2022/10/31 02:02:45;;;;;;;23.10;19.32;;;;;;;9.45;100.00;98281.09;1786585;78;20903;-60
2022/10/31 02:05:17;;;;;;;27.45;19.55;;;;;;;9.45;100.00;98283.77;1761303;79;20975;-59
2022/10/31 02:08:18;;;;;;;25.77;20.02;;;;;;;9.45;100.00;98278.42;1775856;80;20986;-59
2022/10/31 02:10:48;;;;;;;27.10;19.40;;;;;;;9.44;100.00;98282.71;1787565;79;20895;-59
2022/10/31 02:13:14;;;;;;;23.30;19.32;;;;;;;9.44;100.00;98286.16;1787297;78;20960;-60
2022/10/31 02:15:49;;;;;;;26.17;19.60;;;;;;;9.43;100.00;98287.25;1787517;78;20978;-60
2022/10/31 02:18:16;;;;;;;25.97;20.00;;;;;;;9.44;100.00;98288.84;1777021;79;21041;-60
2022/10/31 02:20:55;;;;;;;29.82;21.68;;;;;;;9.45;100.00;98297.66;1774320;80;21141;-60
2022/10/31 02:23:59;;;;;;;25.48;20.52;;;;;;;9.44;100.00;98287.50;1796879;78;20907;-60
2022/10/31 02:26:50;;;;;;;24.60;19.12;;;;;;;9.44;100.00;98288.06;1763937;79;21867;-58
2022/10/31 02:29:52;;;;;;;25.62;19.85;;;;;;;9.43;100.00;98293.94;1784536;78;21108;-61
2022/10/31 02:32:36;;;;;;;30.90;20.45;;;;;;;9.45;100.00;98291.78;1795557;78;20861;-59
2022/10/31 02:35:32;;;;;;;23.75;19.57;;;;;;;9.49;100.00;98302.19;1790858;79;20837;-59
2022/10/31 02:38:39;;;;;;;25.25;19.02;;;;;;;9.52;100.00;98297.62;1784289;77;20877;-61
2022/10/31 02:41:28;;;;;;;26.55;20.43;;;;;;;9.56;100.00;98305.35;1788701;78;20891;-59
2022/10/31 02:44:30;;;;;;;25.48;19.82;;;;;;;9.60;100.00;98302.41;1791190;78;21007;-59
2022/10/31 02:47:06;;;;;;;25.72;19.57;;;;;;;9.63;100.00;98309.86;1778386;78;20998;-58
2022/10/31 02:49:50;;;;;;;21.65;18.07;;;;;;;9.63;100.00;98313.88;1785846;79;21078;-60
2022/10/31 02:52:23;;;;;;;22.58;18.67;;;;;;;9.67;100.00;98309.32;1785492;77;20939;-61
2022/10/31 02:54:51;;;;;;;30.40;20.05;;;;;;;9.72;100.00;98313.30;1779331;79;21458;-59
2022/10/31 02:57:27;;;;;;;25.23;19.70;;;;;;;9.74;100.00;98321.85;1796605;77;21431;-59
2022/10/31 02:59:59;;;;;;;25.90;18.73;;;;;;;9.71;100.00;98316.52;1788013;78;20991;-59
2022/10/31 03:11:07;;;;;;;27.22;19.48;;;;;;;9.60;100.00;98326.48;1784225;79;20087;-59
2022/10/31 03:13:47;;;;;;;23.18;18.45;;;;;;;9.59;100.00;98322.73;1781837;78;20980;-59
2022/10/31 03:16:46;;;;;;;23.77;19.90;;;;;;;9.58;100.00;98329.17;1782443;79;21750;-59
2022/10/31 03:19:21;;;;;;;26.48;19.25;;;;;;;9.62;100.00;98328.34;1781866;79;21033;-58
2022/10/31 03:22:01;;;;;;;28.30;19.10;;;;;;;9.67;100.00;98334.73;1790325;78;21497;-59
2022/10/31 03:24:32;;;;;;;25.32;18.23;;;;;;;9.67;100.00;98317.34;1781656;79;20957;-58
2022/10/31 03:27:00;;;;;;;23.22;18.20;;;;;;;9.67;100.00;98323.50;1800113;78;21396;-59
2022/10/31 03:29:29;;;;;;;25.65;19.40;;;;;;;9.68;100.00;98324.30;1779200;79;21057;-59
2022/10/31 03:32:00;;;;;;;27.48;20.43;;;;;;;9.69;100.00;98325.89;1787628;78;21479;-59
2022/10/31 03:34:27;;;;;;;24.77;20.12;;;;;;;9.73;100.00;98325.05;1781008;79;20943;-59
2022/10/31 03:36:57;;;;;;;23.05;19.10;;;;;;;9.74;100.00;98329.88;1777415;80;20946;-59
2022/10/31 03:39:23;;;;;;;24.18;19.30;;;;;;;9.75;100.00;98326.14;1755826;79;20941;-60
2022/10/31 03:41:58;;;;;;;28.20;20.55;;;;;;;9.72;100.00;98330.16;1761988;80;21070;-58
2022/10/31 03:44:26;;;;;;;26.82;19.98;;;;;;;9.72;100.00;98328.83;1784797;78;27996;-60
2022/10/31 03:46:56;;;;;;;24.98;19.20;;;;;;;9.71;100.00;98327.73;1787587;77;21489;-59
2022/10/31 03:49:23;;;;;;;27.52;19.23;;;;;;;9.71;100.00;98337.10;1774831;80;20892;-58
2022/10/31 03:52:08;;;;;;;26.85;20.10;;;;;;;9.72;100.00;98338.72;1787117;77;20990;-58
2022/10/31 03:54:44;;;;;;;24.35;20.57;;;;;;;9.70;100.00;98338.20;1793685;78;22772;-57
2022/10/31 03:57:41;;;;;;;27.37;20.00;;;;;;;9.69;100.00;98348.09;1782841;78;20936;-58
2022/10/31 04:00:11;;;;;;;21.02;17.62;;;;;;;9.67;100.00;98340.08;1741759;81;20999;-58
2022/10/31 04:03:00;;;;;;;23.55;17.40;;;;;;;9.63;100.00;98339.28;1794200;78;21385;-58
2022/10/31 04:05:27;;;;;;;25.75;19.45;;;;;;;9.61;100.00;98338.77;1786184;77;20955;-58
2022/10/31 04:07:55;;;;;;;23.60;18.80;;;;;;;9.62;100.00;98344.91;1795798;78;21156;-59
2022/10/31 04:10:23;;;;;;;25.57;18.12;;;;;;;9.63;100.00;98344.63;1787747;78;21514;-60
2022/10/31 04:13:00;;;;;;;22.85;17.02;;;;;;;9.63;100.00;98347.30;1793437;77;20934;-58
2022/10/31 04:15:29;;;;;;;22.22;16.17;;;;;;;9.64;100.00;98346.24;1780710;78;20908;-59
2022/10/31 04:17:57;;;;;;;23.25;18.00;;;;;;;9.67;100.00;98356.13;1787640;78;21483;-58
2022/10/31 04:20:33;;;;;;;25.27;18.30;;;;;;;9.69;100.00;98350.77;1773668;80;21470;-58
2022/10/31 04:23:01;;;;;;;21.42;16.85;;;;;;;9.71;100.00;98349.14;1780802;78;21450;-59
2022/10/31 04:25:29;;;;;;;23.57;16.95;;;;;;;9.69;100.00;98351.30;1757511;80;20915;-58
2022/10/31 04:27:55;;;;;;;29.98;18.50;;;;;;;9.67;100.00;98350.25;1792931;78;21037;-58
2022/10/31 04:30:23;;;;;;;27.52;20.65;;;;;;;9.67;100.00;98352.11;1769821;80;21395;-59
2022/10/31 04:32:50;;;;;;;24.55;18.73;;;;;;;9.68;100.00;98353.16;1784757;79;21068;-59
2022/10/31 04:35:18;;;;;;;22.55;18.12;;;;;;;9.68;100.00;98358.52;1781612;77;20939;-58
2022/10/31 04:37:46;;;;;;;24.72;17.48;;;;;;;9.66;100.00;98359.33;1784032;77;21038;-60
2022/10/31 04:40:14;;;;;;;25.75;17.10;;;;;;;9.62;100.00;98359.09;1776348;78;21027;-59
2022/10/31 04:42:59;;;;;;;24.50;18.80;;;;;;;9.62;100.00;98356.95;1796263;78;21018;-59
2022/10/31 04:45:25;;;;;;;24.07;18.05;;;;;;;9.61;100.00;98360.16;1782017;77;21110;-60
2022/10/31 04:47:52;;;;;;;22.50;17.80;;;;;;;9.59;100.00;98358.83;1799317;78;20885;-58
2022/10/31 04:50:19;;;;;;;22.30;17.57;;;;;;;9.59;100.00;98357.48;1784750;79;21042;-60
2022/10/31 04:52:46;;;;;;;25.75;17.42;;;;;;;9.60;100.00;98358.58;1778549;77;20942;-59
2022/10/31 04:55:15;;;;;;;25.23;18.50;;;;;;;9.60;100.00;98362.59;1787294;78;20888;-58
2022/10/31 04:57:50;;;;;;;23.50;17.45;;;;;;;9.59;100.00;98364.98;1787279;77;21118;-58
2022/10/31 05:00:20;;;;;;;23.15;17.42;;;;;;;9.59;100.00;98362.31;1790426;78;20936;-58
2022/10/31 05:02:53;;;;;;;21.68;17.12;;;;;;;9.58;100.00;98359.39;1786186;78;21002;-60
2022/10/31 05:05:23;;;;;;;24.65;17.32;;;;;;;9.56;100.00;98358.06;1786906;78;20939;-60
2022/10/31 05:07:50;;;;;;;27.07;17.75;;;;;;;9.56;100.00;98361.52;1794362;78;20975;-59
2022/10/31 05:10:21;;;;;;;22.98;15.53;;;;;;;9.56;100.00;98362.84;1790853;78;21745;-60
2022/10/31 05:12:56;;;;;;;19.40;14.93;;;;;;;9.53;100.00;98368.77;1775126;78;21121;-58
2022/10/31 05:15:41;;;;;;;19.00;15.63;;;;;;;9.49;100.00;98372.27;1798595;78;20814;-60
2022/10/31 05:18:27;;;;;;;23.65;15.93;;;;;;;9.46;100.00;98372.80;1776454;78;21093;-61
2022/10/31 05:20:59;;;;;;;21.60;15.60;;;;;;;9.43;100.00;98380.83;1787257;78;20861;-61
2022/10/31 05:23:27;;;;;;;20.97;14.75;;;;;;;9.42;100.00;98381.89;1780001;78;21501;-61
2022/10/31 05:25:54;;;;;;;22.22;15.18;;;;;;;9.42;100.00;98388.58;1791297;77;20896;-60
2022/10/31 05:28:21;;;;;;;22.32;15.63;;;;;;;9.41;100.00;98384.32;1771954;80;20904;-61
2022/10/31 05:30:48;;;;;;;19.10;14.15;;;;;;;9.39;100.00;98390.48;1740599;80;20985;-59
2022/10/31 05:33:15;;;;;;;18.35;13.60;;;;;;;9.37;100.00;98392.59;1790456;78;21082;-58
2022/10/31 05:35:57;;;;;;;19.92;14.75;;;;;;;9.37;100.00;98397.95;1780333;79;21325;-58
2022/10/31 05:38:24;;;;;;;19.80;15.28;;;;;;;9.36;100.00;98397.70;1776704;78;20888;-59
2022/10/31 05:41:02;;;;;;;22.02;15.20;;;;;;;9.36;100.00;98405.72;1778562;78;20939;-60
2022/10/31 05:43:30;;;;;;;19.48;14.50;;;;;;;9.34;100.00;98407.06;1778666;79;20986;-60
2022/10/31 05:45:58;;;;;;;16.52;13.95;;;;;;;9.32;100.00;98403.33;1783117;77;20896;-59
2022/10/31 05:48:45;;;;;;;17.73;14.47;;;;;;;9.30;100.00;98408.13;1715647;83;21210;-57
2022/10/31 05:51:30;;;;;;;16.55;13.98;;;;;;;9.29;100.00;98409.22;1703210;83;21109;-61
2022/10/31 05:53:57;;;;;;;17.87;13.90;;;;;;;9.29;100.00;98418.57;1738889;78;20919;-59
2022/10/31 05:56:24;;;;;;;21.15;12.90;;;;;;;9.31;100.00;98421.77;1793992;78;21036;-59
2022/10/31 05:58:51;;;;;;;22.50;14.87;;;;;;;9.35;100.00;98428.16;1783115;77;21518;-60
2022/10/31 06:01:17;;;;;;;18.75;16.27;;;;;;;9.38;100.00;98423.63;1783550;78;21963;-60
2022/10/31 06:03:44;;;;;;;25.48;15.98;;;;;;;9.45;100.00;98422.80;1792337;78;21033;-60
2022/10/31 06:06:14;;;;;;;20.30;15.03;;;;;;;9.47;100.00;98426.00;1781004;79;20979;-60
2022/10/31 06:08:41;;;;;;;21.10;13.80;;;;;;;9.50;100.00;98425.45;1773604;80;20993;-60
2022/10/31 06:11:09;;;;;;;16.95;13.95;;;;;;;9.51;100.00;98431.09;1774872;80;21006;-60
2022/10/31 06:13:55;;;;;;;19.17;14.58;;;;;;;9.47;100.00;98431.34;1789204;78;21309;-58
2022/10/31 06:16:23;;;;;;;21.10;14.75;;;;;;;9.46;100.00;98435.64;1770667;80;20976;-58
2022/10/31 06:18:50;;;;;;;20.30;14.07;;;;;;;9.44;100.00;98433.22;1784699;77;21071;-58
2022/10/31 06:21:17;;;;;;;18.62;14.28;;;;;;;9.42;100.00;98438.03;1828823;77;20961;-59
2022/10/31 06:23:45;;;;;;;19.45;13.88;;;;;;;9.38;100.00;98436.98;1827555;78;20837;-61
2022/10/31 06:26:26;;;;;;;16.70;11.95;;;;;;;9.37;100.00;98440.72;1816376;77;21216;-59
2022/10/31 06:28:53;;;;;;;22.17;13.18;;;;;;;9.35;100.00;98437.52;1816363;78;20893;-59
2022/10/31 06:31:27;;;;;;;18.23;13.08;;;;;;;9.33;100.00;98440.20;1821040;77;20917;-60
2022/10/31 06:33:54;;;;;;;17.12;12.30;;;;;;;9.32;100.00;98452.79;1814663;78;21022;-61
2022/10/31 06:36:22;;;;;;;17.87;14.33;;;;;;;9.37;100.00;98446.06;1827114;77;20872;-60
2022/10/31 06:38:49;;;;;;;14.47;12.53;;;;;;;9.41;100.00;98443.14;1810333;77;21107;-60
2022/10/31 06:41:20;;;;;;;17.00;13.05;;;;;;;9.45;100.00;98446.05;1791416;77;20978;-59
2022/10/31 06:43:48;;;;;;;19.23;13.80;;;;;;;9.46;100.00;98448.48;1808452;77;21431;-62
2022/10/31 06:46:20;;;;;;;12.55;10.05;;;;;;;9.50;100.00;98447.38;1758523;77;21454;-61
2022/10/31 06:48:49;;;;;;;16.40;11.50;;;;;;;9.55;100.00;98444.16;1819602;77;21075;-60
2022/10/31 06:51:15;;;;;;;13.65;10.55;;;;;;;9.60;100.00;98457.53;1821859;77;21215;-60
2022/10/31 06:53:42;;;;;;;15.75;12.60;;;;;;;9.67;100.00;98446.53;1819386;77;20860;-62
2022/10/31 06:56:10;;;;;;;15.58;11.25;;;;;;;9.70;100.00;98461.23;1825877;77;20861;-63
2022/10/31 06:58:39;;;;;;;18.55;11.40;;;;;;;9.66;100.00;98458.85;1811171;78;20951;-60
2022/10/31 07:01:08;;;;;;;13.85;10.55;;;;;;;9.69;100.00;98464.97;1834923;77;20935;-59
2022/10/31 07:03:34;;;;;;;14.80;11.40;;;;;;;9.75;100.00;98469.25;1833053;77;21174;-59
2022/10/31 07:06:02;;;;;;;16.42;10.60;;;;;;;9.81;100.00;98466.27;1810949;77;20840;-60
2022/10/31 07:08:29;;;;;;;13.10;8.80;;;;;;;9.87;100.00;98469.74;1806614;77;21534;-60
2022/10/31 07:10:57;;;;;;;15.13;9.08;;;;;;;9.93;100.00;98465.95;1805450;79;21039;-58
2022/10/31 07:13:26;;;;;;;14.73;9.68;;;;;;;9.91;100.00;98462.23;1752301;80;20963;-57
2022/10/31 07:16:17;;;;;;;11.97;9.33;;;;;;;9.89;100.00;98467.03;1778254;79;21055;-58
2022/10/31 07:18:44;;;;;;;18.87;9.68;;;;;;;9.91;100.00;98466.24;1712394;82;21045;-58
2022/10/31 07:21:11;;;;;;;16.30;9.63;;;;;;;9.97;100.00;98475.03;1715409;81;21405;-58
2022/10/31 07:23:39;;;;;;;11.60;8.58;;;;;;;10.01;100.00;98478.22;1718654;82;21035;-57
2022/10/31 07:26:27;;;;;;;12.88;8.30;;;;;;;10.04;100.00;98478.21;1702898;83;21107;-59
2022/10/31 07:28:54;;;;;;;13.08;8.20;;;;;;;10.04;100.00;98480.88;1710614;83;21167;-61
2022/10/31 07:31:24;;;;;;;10.85;7.95;;;;;;;10.03;100.00;98479.30;1699941;83;21516;-61
2022/10/31 07:33:52;;;;;;;12.10;7.15;;;;;;;10.00;100.00;98473.95;1687592;84;20947;-61
2022/10/31 07:36:26;;;;;;;13.35;8.75;;;;;;;10.00;100.00;98474.49;1701520;82;21521;-61
2022/10/31 07:38:55;;;;;;;10.55;7.20;;;;;;;10.02;100.00;98479.03;1727261;82;21039;-61
2022/10/31 07:41:23;;;;;;;11.22;7.60;;;;;;;10.00;100.00;98474.49;1702419;82;21188;-61
2022/10/31 07:43:51;;;;;;;11.38;6.92;;;;;;;9.97;100.00;98474.50;1739069;81;21443;-60
2022/10/31 07:46:17;;;;;;;9.83;6.72;;;;;;;9.98;100.00;98476.11;1695581;82;20943;-57
2022/10/31 07:48:59;;;;;;;11.38;7.92;;;;;;;9.95;100.00;98475.84;1676402;84;21003;-62
2022/10/31 07:51:44;;;;;;;11.50;8.10;;;;;;;9.96;100.00;98472.89;1686339;84;21106;-60
2022/10/31 07:54:16;;;;;;;14.43;9.10;;;;;;;9.95;100.00;98465.95;1670463;85;21069;-61
2022/10/31 07:56:44;;;;;;;14.70;8.58;;;;;;;9.97;100.00;98473.69;1701143;81;20973;-60
2022/10/31 07:59:11;;;;;;;16.48;9.10;;;;;;;10.03;100.00;98479.30;1718654;80;21061;-59
2022/10/31 08:01:39;;;;;;;15.98;10.63;;;;;;;10.07;100.00;98478.48;1760400;81;21011;-59
2022/10/31 08:04:14;;;;;;;13.62;9.48;;;;;;;10.12;100.00;98487.05;1755636;81;21314;-61
2022/10/31 08:07:00;;;;;;;14.53;9.10;;;;;;;10.19;100.00;98491.03;1738619;81;39180;-59
2022/10/31 08:09:29;;;;;;;11.65;8.13;;;;;;;10.32;100.00;98494.97;1759680;81;21141;-61
2022/10/31 08:11:59;;;;;;;11.55;8.15;;;;;;;10.37;99.79;98494.94;1711941;81;20978;-60
2022/10/31 08:14:26;;;;;;;13.45;9.00;;;;;;;10.35;99.87;98489.59;1727858;82;21012;-61
2022/10/31 08:16:54;;;;;;;14.05;8.75;;;;;;;10.35;99.93;98493.61;1733303;81;21054;-61
2022/10/31 08:19:21;;;;;;;14.07;8.58;;;;;;;10.35;99.87;98495.77;1705093;82;21671;-60
2022/10/31 08:21:54;;;;;;;12.93;8.10;;;;;;;10.33;99.26;98494.44;1695427;83;21553;-63
2022/10/31 08:24:22;;;;;;;11.63;8.00;;;;;;;10.24;99.21;98495.00;1685636;83;21254;-60
2022/10/31 08:26:49;;;;;;;12.50;8.60;;;;;;;10.17;99.39;98493.72;1673814;84;21013;-60
2022/10/31 08:29:19;;;;;;;12.78;8.45;;;;;;;10.12;99.65;98489.20;1683747;83;21005;-60
2022/10/31 08:31:47;;;;;;;14.85;9.25;;;;;;;10.10;100.00;98500.66;1661312;84;21137;-61
2022/10/31 08:34:32;;;;;;;13.43;9.23;;;;;;;10.10;99.85;98498.55;1699645;82;20951;-59
2022/10/31 08:37:19;;;;;;;11.60;8.65;;;;;;;10.05;99.87;98501.23;1705700;81;21063;-61
2022/10/31 08:39:48;;;;;;;14.28;8.78;;;;;;;10.04;99.96;98495.61;1715312;83;21104;-62
2022/10/31 08:42:15;;;;;;;16.60;9.80;;;;;;;10.09;100.00;98500.94;1708448;82;20968;-62
2022/10/31 08:44:42;;;;;;;16.85;10.25;;;;;;;10.12;99.71;98502.58;1695996;83;21996;-59
2022/10/31 08:47:11;;;;;;;15.00;10.05;;;;;;;10.14;99.86;98504.44;1688087;83;20928;-61
2022/10/31 08:49:38;;;;;;;16.57;10.45;;;;;;;10.14;99.49;98510.33;1688096;82;20980;-59
2022/10/31 08:52:05;;;;;;;15.15;10.58;;;;;;;10.14;99.68;98511.66;1685160;83;21086;-61
2022/10/31 08:54:35;;;;;;;19.65;11.60;;;;;;;10.18;99.79;98514.05;1701562;82;21112;-60
2022/10/31 08:57:19;;;;;;;16.80;11.93;;;;;;;10.20;99.58;98511.89;1621468;87;21267;-59
2022/10/31 08:59:46;;;;;;;15.43;10.85;;;;;;;10.14;99.45;98510.33;1636049;84;21010;-61
2022/10/31 09:02:15;;;;;;;13.68;10.53;;;;;;;10.14;99.58;98514.34;1675161;83;21491;-59
2022/10/31 09:04:43;;;;;;;13.80;10.28;;;;;;;10.13;99.82;98512.72;1699553;83;21078;-60
2022/10/31 09:07:10;;;;;;;12.03;8.70;;;;;;;10.17;99.90;98514.58;1698568;84;21095;-60
2022/10/31 09:09:38;;;;;;;10.98;8.10;;;;;;;10.23;99.38;98510.81;1707916;83;21020;-60
2022/10/31 09:12:12;;;;;;;15.25;8.50;;;;;;;10.20;97.66;98514.56;1708496;82;20996;-62
2022/10/31 09:14:57;;;;;;;12.90;9.03;;;;;;;10.18;98.01;98520.73;1697814;83;20996;-60
2022/10/31 09:17:29;;;;;;;15.80;9.33;;;;;;;10.22;97.76;98527.94;1705946;82;21103;-60
2022/10/31 09:20:12;;;;;;;11.93;8.18;;;;;;;10.19;97.75;98531.19;1713925;83;21440;-58
2022/10/31 09:22:39;;;;;;;13.35;8.90;;;;;;;10.10;96.81;98534.67;1702321;83;21295;-59
2022/10/31 09:25:08;;;;;;;17.10;10.20;;;;;;;9.99;97.17;98538.44;1706227;83;21644;-62
2022/10/31 09:27:50;;;;;;;31.62;10.08;;;;;;;9.95;97.53;98540.88;1678409;82;21542;-61
2022/10/31 09:30:26;;;;;;;13.30;9.53;;;;;;;9.93;97.57;98539.55;1693772;82;21214;-60
2022/10/31 09:33:03;;;;;;;15.98;8.60;;;;;;;9.85;97.34;98539.56;1709179;83;21046;-61
2022/10/31 09:35:29;;;;;;;13.03;9.10;;;;;;;9.81;97.55;98547.88;1703013;83;21126;-61
2022/10/31 09:38:00;;;;;;;11.53;8.85;;;;;;;9.79;97.41;98545.20;1703429;83;21030;-66
2022/10/31 09:40:44;;;;;;;9.88;7.58;;;;;;;9.79;97.40;98547.34;1704016;83;20991;-60
2022/10/31 09:43:26;;;;;;;10.45;7.30;;;;;;;9.87;97.01;98550.02;1706460;82;21121;-59
2022/10/31 09:46:27;;;;;;;10.10;7.42;;;;;;;9.91;96.86;98559.09;1701375;82;21026;-59
2022/10/31 09:49:44;;;;;;;10.18;7.47;;;;;;;9.90;96.03;98550.78;1698260;84;21219;-62
2022/10/31 09:52:23;;;;;;;9.90;7.90;;;;;;;9.90;95.95;98556.13;1695424;83;29393;-60
2022/10/31 09:54:58;;;;;;;10.30;7.55;;;;;;;9.95;95.81;98565.48;1691472;83;21177;-58
2022/10/31 09:57:28;;;;;;;;;;;;;;;10.02;95.33;98560.65;1688855;83;20877;-60
2022/10/31 09:59:56;;;;;;;10.80;7.80;;;;;;;10.04;94.77;98556.62;1705781;83;20110;-63
2022/10/31 10:02:35;;;;;;;15.03;9.33;;;;;;;10.07;94.43;98560.11;1693142;83;21129;-58
2022/10/31 10:05:22;;;;;;;18.67;8.95;;;;;;;10.10;93.87;98562.78;1703178;82;21034;-61
2022/10/31 10:08:17;;;;;;;14.03;10.03;;;;;;;10.13;93.60;98556.89;1695450;82;21110;-64
2022/10/31 10:11:38;;;;;;;18.37;11.12;;;;;;;10.19;92.90;98559.30;1670093;82;21709;-62
2022/10/31 10:14:34;;;;;;;15.48;11.00;;;;;;;10.14;93.02;98562.52;1649555;83;21634;-61
2022/10/31 10:17:40;;;;;;;17.30;10.70;;;;;;;10.16;93.07;98567.06;1668747;83;21604;-60
2022/10/31 10:20:52;;;;;;;15.30;10.48;;;;;;;10.19;92.89;98567.33;1686262;82;21024;-61
2022/10/31 10:24:00;;;;;;;14.95;10.30;;;;;;;10.23;92.86;98564.36;1708032;82;21122;-64
2022/10/31 10:26:38;;;;;;;17.07;11.43;;;;;;;10.29;92.60;98568.61;1722073;81;21161;-61
2022/10/31 10:29:31;;;;;;;13.45;10.35;;;;;;;10.35;92.33;98568.05;1722523;80;21049;-62
2022/10/31 10:32:01;;;;;;;12.78;8.98;;;;;;;10.40;91.69;98562.69;1722907;82;21516;-61
2022/10/31 10:34:38;;;;;;;12.25;9.70;;;;;;;10.41;91.05;98564.27;1729329;81;21053;-59
2022/10/31 10:37:18;;;;;;;14.65;9.73;;;;;;;10.44;90.22;98565.06;1712864;82;21560;-64
2022/10/31 10:39:50;;;;;;;13.65;9.70;;;;;;;10.45;90.30;98562.66;1685848;82;21138;-63
2022/10/31 10:48:24;;;;;;;13.62;9.50;;;;;;;10.79;89.36;98574.25;1687007;81;21158;-63
2022/10/31 10:50:52;;;;;;;11.33;9.38;;;;;;;10.81;88.55;98574.77;1717616;82;21097;-63
2022/10/31 10:54:02;;;;;;;10.75;8.65;;;;;;;10.91;87.78;98576.59;1728423;81;21213;-62
2022/10/31 10:56:35;;;;;;;16.37;9.60;;;;;;;10.94;87.77;98573.36;1695705;82;21174;-59
2022/10/31 10:59:02;;;;;;;11.63;9.38;;;;;;;11.03;87.09;98566.86;1713685;83;21990;-60
2022/10/31 11:01:29;;;;;;;14.90;9.95;;;;;;;11.04;86.38;98567.94;1710483;82;21082;-61
2022/10/31 11:03:56;;;;;;;11.90;9.23;;;;;;;10.95;85.28;98565.03;1719295;80;21103;-63
2022/10/31 11:06:26;;;;;;;13.58;9.65;;;;;;;10.92;85.47;98561.59;1718043;82;21487;-60
2022/10/31 11:09:04;;;;;;;13.58;10.05;;;;;;;10.96;85.40;98557.27;1659280;84;20941;-59
2022/10/31 11:11:31;;;;;;;10.70;8.35;;;;;;;11.04;84.74;98553.73;1686776;83;21284;-58
2022/10/31 11:14:14;;;;;;;12.20;9.48;;;;;;;11.04;84.48;98561.77;1682971;82;21088;-61
2022/10/31 11:16:44;;;;;;;10.63;8.68;;;;;;;11.09;84.89;98560.40;1683430;84;21055;-59
2022/10/31 11:19:20;;;;;;;11.40;8.48;;;;;;;11.23;84.17;98554.13;1688796;82;21542;-60
2022/10/31 11:21:47;;;;;;;11.03;8.90;;;;;;;11.33;83.86;98553.24;1692772;83;21075;-60
2022/10/31 11:24:23;;;;;;;12.13;9.45;;;;;;;11.51;83.47;98558.71;1679689;83;21798;-58
2022/10/31 11:26:51;;;;;;;11.65;8.95;;;;;;;11.74;83.15;98551.80;1676722;83;21676;-59
2022/10/31 11:29:25;;;;;;;10.18;9.00;;;;;;;11.95;82.14;98552.38;1700951;83;21103;-60
2022/10/31 11:31:55;;;;;;;10.50;7.97;;;;;;;12.13;81.58;98557.81;1692970;82;21053;-62
2022/10/31 11:34:36;;;;;;;10.13;8.25;;;;;;;12.32;81.14;98558.66;1709642;81;21085;-60
2022/10/31 11:37:20;;;;;;;11.03;8.13;;;;;;;12.58;79.77;98558.32;1715056;81;21810;-61
2022/10/31 11:39:57;;;;;;;10.88;8.60;;;;;;;12.74;78.31;98558.39;1715375;81;21053;-61
2022/10/31 11:42:32;;;;;;;11.43;8.18;;;;;;;12.82;77.13;98554.50;1730386;82;21069;-60
2022/10/31 11:45:01;;;;;;;11.12;8.90;;;;;;;12.84;75.97;98559.58;1705241;82;20952;-60
2022/10/31 11:47:32;;;;;;;10.53;8.83;;;;;;;12.79;75.33;98562.33;1702388;83;21651;-60
2022/10/31 11:50:02;;;;;;;12.53;8.38;;;;;;;12.81;76.01;98556.92;1710630;83;21826;-59
2022/10/31 11:52:31;;;;;;;11.95;8.53;;;;;;;12.95;75.74;98561.82;1689055;82;20983;-61
2022/10/31 11:55:14;;;;;;;11.57;7.87;;;;;;;13.10;75.38;98562.17;1685051;83;21016;-59
2022/10/31 11:57:48;;;;;;;9.58;7.42;;;;;;;13.28;74.91;98560.02;1706288;83;21006;-55
2022/10/31 12:00:33;;;;;;;9.35;7.47;;;;;;;13.43;74.44;98555.72;1716121;81;21091;-59
2022/10/31 12:03:48;;;;;;;10.30;9.20;;;;;;;13.57;73.54;98558.44;1709565;82;21729;-57